SEGU/GYE METAR and TAF weather

Enter ICAO airport designator
Station Type Date Time Source
SEGU METAR 2022/01/26 13:00 UTC NOAA

SEGU 261300Z 07003KT 9999 SCT006 BKN016 OVC090 24/23 Q1012 NOSIG RMK A2990


Station Type Date Time Source
SEGU Decoded METAR 2022/01/26 13:00 UTC NOAA

Guayaquil / Simon Bolivar, Ecuador (SEGU) 02-09S 079-53W 9M
Jan 26, 2022 - 08:00 AM EST / 2022.01.26 1300 UTC
Wind: from the ENE (070 degrees) at 3 MPH (3 KT):0
Visibility: greater than 7 mile(s):0
Sky conditions: overcast
Temperature: 75 F (24 C)
Dew Point: 73 F (23 C)
Relative Humidity: 94%
Pressure (altimeter): 29.88 in. Hg (1012 hPa)
ob: SEGU 261300Z 07003KT 9999 SCT006 BKN016 OVC090 24/23 Q1012 NOSIG RMK A2990
cycle: 13

Station Type Date Time Source
SEGU TAF 2022/01/26 12:14 UTC NOAA

TAF SEGU 261040Z 2612/2712 02006KT 8000 SCT007 BKN023 OVC100
BECMG 2613/2615 9999 SCT016 BKN026 BKN100
BECMG 2617/2619 35006KT BKN026 BKN100
BECMG 2622/2624 22004KT FEW010 BKN023 OVC090 TX28/2620Z TN24/2610Z

Example: see airport list